Time;durP1;ratioP1;P1;durP2;ratioP2;P2;SDS_P1;SDS_P2;PMS_P1;PMS_P2;Temp;Humidity;BMP_temperature;BMP_pressure;BME280_temperature;BME280_humidity;BME280_pressure;Samples;Min_cycle;Max_cycle;Signal;HPM_P1;HPM_P2
2023/12/24 00:01:22;;;;;;;1.03;0.93;;;;;;;;;;4994763;28;20223;-72
2023/12/24 00:03:49;;;;;;;0.80;0.80;;;;;;;;;;4987532;28;20678;-72
2023/12/24 00:06:17;;;;;;;0.80;0.80;;;;;;;;;;4993548;28;20222;-73
2023/12/24 00:08:44;;;;;;;0.90;0.90;;;;;;;;;;4970508;28;21077;-71
2023/12/24 00:11:11;;;;;;;0.97;0.90;;;;;;;;;;4992544;28;20561;-72
2023/12/24 00:13:39;;;;;;;0.90;0.90;;;;;;;;;;4989993;28;20314;-72
2023/12/24 00:16:06;;;;;;;1.00;1.00;;;;;;;;;;4985573;28;20215;-72
2023/12/24 00:18:33;;;;;;;0.90;0.90;;;;;;;;;;4996233;28;20214;-71
2023/12/24 00:21:00;;;;;;;1.00;1.00;;;;;;;;;;4994359;28;20665;-71
2023/12/24 00:23:28;;;;;;;0.70;0.70;;;;;;;;;;4992764;28;20247;-71
2023/12/24 00:25:55;;;;;;;1.53;1.43;;;;;;;;;;4987132;28;20258;-72
2023/12/24 00:28:22;;;;;;;0.90;0.90;;;;;;;;;;4999088;28;20204;-71
2023/12/24 00:30:50;;;;;;;0.80;0.80;;;;;;;;;;4974115;28;20211;-71
2023/12/24 00:33:17;;;;;;;0.80;0.80;;;;;;;;;;4996732;28;20301;-71
2023/12/24 00:35:46;;;;;;;1.23;0.80;;;;;;;;;;4990761;28;20210;-69
2023/12/24 00:38:13;;;;;;;1.00;1.00;;;;;;;;;;4996357;28;20238;-67
2023/12/24 00:40:41;;;;;;;0.70;0.70;;;;;;;;;;4968239;28;20203;-68
2023/12/24 00:43:08;;;;;;;0.80;0.80;;;;;;;;;;4977432;28;20362;-69
2023/12/24 00:45:36;;;;;;;0.80;0.80;;;;;;;;;;4987545;28;20212;-67
2023/12/24 00:48:03;;;;;;;0.80;0.80;;;;;;;;;;4990546;28;20219;-70
2023/12/24 00:50:31;;;;;;;1.10;1.00;;;;;;;;;;4992939;28;20214;-70
2023/12/24 00:52:58;;;;;;;0.70;0.70;;;;;;;;;;4989874;28;20343;-69
2023/12/24 00:55:25;;;;;;;0.90;0.90;;;;;;;;;;5000045;28;20686;-70
2023/12/24 00:57:52;;;;;;;0.90;0.90;;;;;;;;;;4990965;28;20231;-69
2023/12/24 01:00:20;;;;;;;0.90;0.90;;;;;;;;;;4994048;28;20204;-69
2023/12/24 01:02:50;;;;;;;0.90;0.90;;;;;;;;;;4985376;28;20237;-68
2023/12/24 01:05:17;;;;;;;0.90;0.90;;;;;;;;;;5004702;28;20619;-68
2023/12/24 01:07:45;;;;;;;0.80;0.80;;;;;;;;;;4993953;28;20299;-67
2023/12/24 01:10:12;;;;;;;0.97;0.90;;;;;;;;;;4997831;28;20234;-69
2023/12/24 01:12:39;;;;;;;0.83;0.83;;;;;;;;;;4995356;28;20247;-69
2023/12/24 01:15:07;;;;;;;1.10;1.10;;;;;;;;;;4973884;28;20264;-69
2023/12/24 01:17:34;;;;;;;1.00;0.90;;;;;;;;;;4995100;28;20532;-68
2023/12/24 01:20:03;;;;;;;1.00;1.00;;;;;;;;;;4993855;28;20204;-70
2023/12/24 01:22:30;;;;;;;0.80;0.80;;;;;;;;;;5000367;28;20227;-68
2023/12/24 01:24:57;;;;;;;1.67;1.00;;;;;;;;;;4993583;28;20207;-68
2023/12/24 01:27:27;;;;;;;0.90;0.90;;;;;;;;;;4994783;28;20211;-67
2023/12/24 01:29:55;;;;;;;0.80;0.80;;;;;;;;;;4996472;28;20219;-69
2023/12/24 01:32:22;;;;;;;0.80;0.80;;;;;;;;;;4992756;28;20230;-68
2023/12/24 01:34:50;;;;;;;0.83;0.83;;;;;;;;;;4996684;28;20239;-68
2023/12/24 01:37:17;;;;;;;1.13;0.90;;;;;;;;;;5009770;28;20778;-69
2023/12/24 01:39:44;;;;;;;0.90;0.90;;;;;;;;;;4999966;28;20200;-70
2023/12/24 01:42:12;;;;;;;0.90;0.90;;;;;;;;;;4992234;28;20235;-68
2023/12/24 01:44:39;;;;;;;0.80;0.80;;;;;;;;;;4994586;28;21645;-70
2023/12/24 01:47:07;;;;;;;0.80;0.80;;;;;;;;;;4994682;28;20219;-68
2023/12/24 01:49:35;;;;;;;0.90;0.90;;;;;;;;;;4997811;28;20235;-68
2023/12/24 01:52:02;;;;;;;1.07;0.90;;;;;;;;;;4993379;28;20223;-69
2023/12/24 01:54:31;;;;;;;1.03;0.83;;;;;;;;;;4991358;28;20232;-69
2023/12/24 01:56:59;;;;;;;0.80;0.80;;;;;;;;;;4988214;28;20196;-69
2023/12/24 01:59:26;;;;;;;0.80;0.80;;;;;;;;;;4995008;28;20550;-69
2023/12/24 02:01:54;;;;;;;0.90;0.90;;;;;;;;;;4993187;28;20227;-68
2023/12/24 02:04:21;;;;;;;1.00;1.00;;;;;;;;;;4990614;28;20234;-67
2023/12/24 02:06:50;;;;;;;0.90;0.90;;;;;;;;;;4994108;28;20215;-68
2023/12/24 02:09:18;;;;;;;1.40;1.30;;;;;;;;;;5000248;28;20212;-68
2023/12/24 02:11:45;;;;;;;0.80;0.80;;;;;;;;;;4985998;28;20226;-68
2023/12/24 02:14:12;;;;;;;1.00;1.00;;;;;;;;;;4975467;28;20235;-69
2023/12/24 02:16:40;;;;;;;1.07;1.07;;;;;;;;;;4993284;28;20219;-69
2023/12/24 02:19:12;;;;;;;1.03;1.03;;;;;;;;;;4964962;28;20204;-69
2023/12/24 02:21:40;;;;;;;0.93;0.93;;;;;;;;;;4991337;28;20665;-68
2023/12/24 02:24:07;;;;;;;1.10;1.00;;;;;;;;;;4992448;28;20262;-69
2023/12/24 02:26:38;;;;;;;0.90;0.90;;;;;;;;;;4994055;28;20203;-70
2023/12/24 02:29:22;;;;;;;0.90;0.90;;;;;;;;;;4970549;28;20207;-69
2023/12/24 02:31:52;;;;;;;0.90;0.90;;;;;;;;;;4990936;28;20255;-70
2023/12/24 02:34:20;;;;;;;0.80;0.80;;;;;;;;;;4989891;28;20219;-68
2023/12/24 02:36:48;;;;;;;0.90;0.90;;;;;;;;;;4976620;28;20694;-69
2023/12/24 02:39:22;;;;;;;0.97;0.97;;;;;;;;;;4994055;28;20207;-69
2023/12/24 02:41:49;;;;;;;0.90;0.90;;;;;;;;;;4988014;28;20223;-69
2023/12/24 02:44:16;;;;;;;0.83;0.83;;;;;;;;;;4991889;28;20220;-69
2023/12/24 02:46:44;;;;;;;1.00;1.00;;;;;;;;;;4981795;28;20226;-70
2023/12/24 02:49:11;;;;;;;1.00;1.00;;;;;;;;;;4987750;28;20271;-68
2023/12/24 02:51:38;;;;;;;1.00;1.00;;;;;;;;;;4993397;28;20262;-70
2023/12/24 02:54:05;;;;;;;0.80;0.80;;;;;;;;;;4989501;28;20260;-69
2023/12/24 02:56:36;;;;;;;0.90;0.90;;;;;;;;;;4995255;28;20200;-69
2023/12/24 02:59:04;;;;;;;1.20;1.10;;;;;;;;;;4991964;28;20241;-70
2023/12/24 03:01:31;;;;;;;1.00;1.00;;;;;;;;;;4974139;28;20224;-70
2023/12/24 03:03:59;;;;;;;0.90;0.90;;;;;;;;;;5001447;28;20219;-70
2023/12/24 03:06:26;;;;;;;0.90;0.90;;;;;;;;;;4990323;28;20222;-70
2023/12/24 03:08:54;;;;;;;1.00;1.00;;;;;;;;;;4970811;28;20204;-69
2023/12/24 03:11:21;;;;;;;1.00;1.00;;;;;;;;;;4982052;28;20234;-67
2023/12/24 03:13:48;;;;;;;0.90;0.90;;;;;;;;;;4991378;28;20710;-69
2023/12/24 03:16:16;;;;;;;1.17;1.17;;;;;;;;;;4998254;28;20211;-68
2023/12/24 03:18:44;;;;;;;1.03;1.03;;;;;;;;;;4999393;28;20204;-68
2023/12/24 03:21:11;;;;;;;1.20;1.20;;;;;;;;;;4994914;28;20898;-69
2023/12/24 03:23:38;;;;;;;1.03;1.00;;;;;;;;;;4996330;28;20207;-67
2023/12/24 03:26:06;;;;;;;1.10;1.10;;;;;;;;;;4997202;28;21099;-68
2023/12/24 03:28:33;;;;;;;1.00;1.00;;;;;;;;;;4977890;28;20661;-68
2023/12/24 03:31:00;;;;;;;1.00;1.00;;;;;;;;;;4996342;28;20212;-68
2023/12/24 03:33:28;;;;;;;1.37;1.10;;;;;;;;;;4997129;28;20220;-69
2023/12/24 03:35:55;;;;;;;1.20;1.20;;;;;;;;;;4988225;28;20347;-70
2023/12/24 03:38:22;;;;;;;1.00;1.00;;;;;;;;;;4994846;28;20867;-69
2023/12/24 03:40:50;;;;;;;1.00;1.00;;;;;;;;;;4999133;28;20208;-70
2023/12/24 03:43:17;;;;;;;1.10;1.10;;;;;;;;;;5000136;28;21372;-70
2023/12/24 03:45:44;;;;;;;1.30;1.20;;;;;;;;;;5000364;28;20208;-68
2023/12/24 03:48:11;;;;;;;1.10;1.10;;;;;;;;;;4986801;28;20211;-69
2023/12/24 03:50:39;;;;;;;1.13;1.13;;;;;;;;;;4991400;28;20204;-70
2023/12/24 03:53:07;;;;;;;1.13;1.13;;;;;;;;;;4991522;28;20235;-70
2023/12/24 03:55:34;;;;;;;1.00;1.00;;;;;;;;;;4993819;28;20266;-69
2023/12/24 03:58:01;;;;;;;2.57;1.23;;;;;;;;;;4999481;28;20305;-68
2023/12/24 04:00:28;;;;;;;1.33;1.23;;;;;;;;;;5002317;28;20295;-69
2023/12/24 04:02:56;;;;;;;1.20;1.10;;;;;;;;;;4996253;28;20315;-69
2023/12/24 04:05:27;;;;;;;1.20;1.20;;;;;;;;;;4971021;28;20200;-69
2023/12/24 04:07:57;;;;;;;1.10;1.10;;;;;;;;;;4989162;28;20224;-69
2023/12/24 04:10:24;;;;;;;0.90;0.90;;;;;;;;;;4993882;28;20636;-69
2023/12/24 04:12:51;;;;;;;1.30;1.20;;;;;;;;;;4993446;28;20239;-71
2023/12/24 04:15:19;;;;;;;1.20;1.20;;;;;;;;;;4995883;28;20211;-68
2023/12/24 04:17:47;;;;;;;1.10;1.10;;;;;;;;;;4990308;28;20220;-69
2023/12/24 04:20:14;;;;;;;1.23;1.20;;;;;;;;;;4991506;28;20239;-66
2023/12/24 04:22:42;;;;;;;0.93;0.93;;;;;;;;;;5003650;28;20227;-67
2023/12/24 04:25:09;;;;;;;1.10;1.10;;;;;;;;;;4971612;28;20221;-69
2023/12/24 04:27:36;;;;;;;1.00;1.00;;;;;;;;;;4997050;28;20211;-70
2023/12/24 04:30:04;;;;;;;1.57;1.00;;;;;;;;;;4969834;28;20663;-69
2023/12/24 04:32:31;;;;;;;1.20;1.20;;;;;;;;;;4991051;28;20227;-69
2023/12/24 04:34:58;;;;;;;1.10;1.10;;;;;;;;;;4990842;28;20628;-67
2023/12/24 04:37:26;;;;;;;1.17;1.13;;;;;;;;;;4994354;28;20214;-69
2023/12/24 04:39:53;;;;;;;1.13;1.13;;;;;;;;;;4993872;28;20218;-68
2023/12/24 04:42:20;;;;;;;1.10;1.00;;;;;;;;;;4992758;28;20223;-69
2023/12/24 04:44:47;;;;;;;1.20;1.20;;;;;;;;;;5009343;28;20207;-70
2023/12/24 04:47:15;;;;;;;1.10;1.10;;;;;;;;;;4992006;28;20218;-69
2023/12/24 04:49:42;;;;;;;1.10;1.10;;;;;;;;;;4993474;28;20213;-68
2023/12/24 04:52:16;;;;;;;1.10;1.10;;;;;;;;;;4976718;28;20306;-67
2023/12/24 04:54:43;;;;;;;1.10;1.10;;;;;;;;;;4993858;28;20363;-70
2023/12/24 04:57:11;;;;;;;1.00;1.00;;;;;;;;;;4993972;28;20345;-69
2023/12/24 04:59:38;;;;;;;1.10;1.10;;;;;;;;;;4998047;28;20208;-67
2023/12/24 05:02:06;;;;;;;1.53;1.10;;;;;;;;;;4991284;28;20277;-69
2023/12/24 05:04:34;;;;;;;0.90;0.90;;;;;;;;;;4997982;28;20211;-67
2023/12/24 05:07:05;;;;;;;1.10;1.10;;;;;;;;;;4988659;28;20203;-67
2023/12/24 05:09:32;;;;;;;1.13;1.03;;;;;;;;;;4986470;28;20203;-67
2023/12/24 05:12:02;;;;;;;1.30;1.30;;;;;;;;;;4989036;28;20239;-69
2023/12/24 05:14:33;;;;;;;1.10;1.10;;;;;;;;;;4992846;28;20219;-70
2023/12/24 05:17:02;;;;;;;1.00;1.00;;;;;;;;;;4989306;28;20222;-68
2023/12/24 05:19:29;;;;;;;1.20;1.20;;;;;;;;;;4996338;28;20339;-68
2023/12/24 05:21:56;;;;;;;1.00;1.00;;;;;;;;;;4989963;28;20761;-69
2023/12/24 05:24:24;;;;;;;1.10;1.10;;;;;;;;;;4992977;28;20220;-69
2023/12/24 05:26:51;;;;;;;1.23;1.23;;;;;;;;;;4990098;28;22814;-69
2023/12/24 05:29:19;;;;;;;1.07;1.07;;;;;;;;;;4993464;28;20260;-69
2023/12/24 05:31:46;;;;;;;1.23;1.17;;;;;;;;;;4992498;28;20223;-68
2023/12/24 05:34:13;;;;;;;1.80;1.00;;;;;;;;;;4975703;28;20232;-68
2023/12/24 05:36:41;;;;;;;1.20;1.20;;;;;;;;;;4989964;28;20861;-69
2023/12/24 05:39:11;;;;;;;1.10;1.10;;;;;;;;;;4992209;28;20212;-74
2023/12/24 05:41:38;;;;;;;1.13;1.13;;;;;;;;;;4995935;28;20226;-74
2023/12/24 05:44:06;;;;;;;8.50;6.83;;;;;;;;;;4975041;28;20803;-72
2023/12/24 05:46:33;;;;;;;9.00;5.47;;;;;;;;;;4992141;28;20587;-74
2023/12/24 05:49:00;;;;;;;1.70;1.60;;;;;;;;;;4976573;28;20212;-73
2023/12/24 05:51:28;;;;;;;2.63;2.23;;;;;;;;;;4991667;28;20222;-72
2023/12/24 05:53:55;;;;;;;2.07;1.97;;;;;;;;;;4991851;28;20311;-72
2023/12/24 05:56:24;;;;;;;2.43;2.23;;;;;;;;;;4989108;28;20274;-72
2023/12/24 05:58:52;;;;;;;3.00;2.77;;;;;;;;;;4989296;28;20233;-74
2023/12/24 06:01:19;;;;;;;2.17;2.07;;;;;;;;;;4990154;28;20733;-74
2023/12/24 06:03:46;;;;;;;3.63;3.33;;;;;;;;;;4986180;28;21233;-74
2023/12/24 06:06:14;;;;;;;2.93;2.73;;;;;;;;;;5000150;28;20242;-74
2023/12/24 06:08:41;;;;;;;2.53;2.40;;;;;;;;;;4975411;28;20292;-73
2023/12/24 06:11:15;;;;;;;2.50;2.40;;;;;;;;;;4988248;28;20243;-72
2023/12/24 06:13:43;;;;;;;2.10;1.80;;;;;;;;;;4992216;28;20226;-75
2023/12/24 06:16:12;;;;;;;1.80;1.70;;;;;;;;;;4991747;28;20215;-74
2023/12/24 06:18:40;;;;;;;1.50;1.40;;;;;;;;;;4987413;28;20207;-73
2023/12/24 06:21:09;;;;;;;1.37;1.33;;;;;;;;;;4987711;28;20298;-74
2023/12/24 06:23:37;;;;;;;2.10;2.00;;;;;;;;;;4987023;28;20208;-74
2023/12/24 06:26:05;;;;;;;1.77;1.40;;;;;;;;;;4973682;28;20309;-74
2023/12/24 06:28:32;;;;;;;1.97;1.60;;;;;;;;;;4997090;28;20738;-73
2023/12/24 06:31:00;;;;;;;1.20;1.20;;;;;;;;;;4998611;28;20350;-74
2023/12/24 06:33:28;;;;;;;1.53;1.30;;;;;;;;;;4995561;28;20223;-72
2023/12/24 06:35:56;;;;;;;2.03;1.83;;;;;;;;;;4987914;28;20300;-72
2023/12/24 06:38:24;;;;;;;2.07;1.97;;;;;;;;;;5010255;28;20219;-70
2023/12/24 06:40:51;;;;;;;1.70;1.60;;;;;;;;;;5013918;28;20199;-70
2023/12/24 06:43:18;;;;;;;1.40;1.30;;;;;;;;;;5009957;28;20200;-69
2023/12/24 06:45:45;;;;;;;1.13;1.10;;;;;;;;;;5013982;28;20199;-70
2023/12/24 06:48:12;;;;;;;1.20;1.20;;;;;;;;;;5012508;28;20804;-70
2023/12/24 06:50:41;;;;;;;1.60;1.60;;;;;;;;;;5015303;28;20647;-70
2023/12/24 06:53:08;;;;;;;1.87;1.60;;;;;;;;;;5012472;28;20235;-71
2023/12/24 06:55:36;;;;;;;1.87;1.80;;;;;;;;;;5012094;28;20207;-71
2023/12/24 06:58:06;;;;;;;1.77;1.67;;;;;;;;;;5015869;28;20203;-69
2023/12/24 07:00:34;;;;;;;1.90;1.80;;;;;;;;;;5011653;28;20225;-71
2023/12/24 07:03:01;;;;;;;1.07;1.07;;;;;;;;;;4994728;28;20676;-72
2023/12/24 07:05:34;;;;;;;1.27;1.27;;;;;;;;;;5011523;28;20207;-71
2023/12/24 07:08:02;;;;;;;1.83;1.50;;;;;;;;;;5012117;28;20311;-69
2023/12/24 07:10:30;;;;;;;1.50;1.40;;;;;;;;;;5000325;28;20208;-67
2023/12/24 07:12:58;;;;;;;3.13;2.93;;;;;;;;;;5012945;28;20227;-71
2023/12/24 07:15:25;;;;;;;1.30;1.30;;;;;;;;;;5008474;28;20230;-69
2023/12/24 07:17:53;;;;;;;1.77;1.67;;;;;;;;;;5010120;28;20220;-71
2023/12/24 07:20:21;;;;;;;1.23;1.23;;;;;;;;;;5014789;28;20610;-69
2023/12/24 07:22:48;;;;;;;1.00;1.00;;;;;;;;;;5011071;28;20361;-70
2023/12/24 07:25:16;;;;;;;1.17;1.17;;;;;;;;;;5008696;28;20208;-72
2023/12/24 07:27:44;;;;;;;1.60;1.47;;;;;;;;;;4985750;28;20203;-71
2023/12/24 07:30:14;;;;;;;0.90;0.90;;;;;;;;;;4992781;28;20212;-71
2023/12/24 07:32:47;;;;;;;1.00;1.00;;;;;;;;;;4990255;28;20396;-72
2023/12/24 07:35:16;;;;;;;1.10;1.10;;;;;;;;;;4991520;28;20231;-74
2023/12/24 07:37:46;;;;;;;0.80;0.80;;;;;;;;;;4991862;28;20659;-72
2023/12/24 07:40:13;;;;;;;0.83;0.83;;;;;;;;;;4989773;28;20265;-71
2023/12/24 07:42:41;;;;;;;0.97;0.97;;;;;;;;;;4986450;28;20239;-72
2023/12/24 07:45:18;;;;;;;0.90;0.90;;;;;;;;;;4985405;28;20500;-75
2023/12/24 07:47:45;;;;;;;0.80;0.80;;;;;;;;;;4986708;28;20290;-75
2023/12/24 07:50:13;;;;;;;0.80;0.80;;;;;;;;;;4993863;28;20222;-73
2023/12/24 07:52:41;;;;;;;1.50;0.70;;;;;;;;;;4991141;28;20242;-72
2023/12/24 07:55:08;;;;;;;0.90;0.90;;;;;;;;;;4997526;28;20224;-70
2023/12/24 07:57:38;;;;;;;0.80;0.80;;;;;;;;;;4992583;28;20204;-73
2023/12/24 08:00:08;;;;;;;0.83;0.83;;;;;;;;;;4988901;28;20208;-73
2023/12/24 08:02:36;;;;;;;0.70;0.70;;;;;;;;;;4987555;28;20235;-71
2023/12/24 08:05:03;;;;;;;0.80;0.80;;;;;;;;;;4992091;28;20302;-72
2023/12/24 08:07:31;;;;;;;0.80;0.80;;;;;;;;;;4993744;28;20704;-74
2023/12/24 08:09:59;;;;;;;0.90;0.90;;;;;;;;;;4966008;28;20800;-71
2023/12/24 08:12:26;;;;;;;0.73;0.73;;;;;;;;;;4994618;28;20322;-75
2023/12/24 08:14:53;;;;;;;0.80;0.80;;;;;;;;;;4991670;28;20231;-72
2023/12/24 08:17:20;;;;;;;0.80;0.80;;;;;;;;;;4990928;28;20858;-72
2023/12/24 08:19:48;;;;;;;0.70;0.70;;;;;;;;;;4989381;28;20213;-74
2023/12/24 08:22:15;;;;;;;0.80;0.80;;;;;;;;;;4980683;28;20243;-72
2023/12/24 08:24:43;;;;;;;0.70;0.70;;;;;;;;;;4993292;28;20304;-74
2023/12/24 08:27:10;;;;;;;0.80;0.80;;;;;;;;;;4993973;28;20212;-73
2023/12/24 08:29:38;;;;;;;0.90;0.90;;;;;;;;;;4982287;28;20299;-73
2023/12/24 08:32:06;;;;;;;2.00;0.87;;;;;;;;;;4988082;28;22720;-73
2023/12/24 08:34:36;;;;;;;0.73;0.73;;;;;;;;;;4993792;28;20683;-73
2023/12/24 08:37:03;;;;;;;0.87;0.87;;;;;;;;;;4976170;28;20294;-73
2023/12/24 08:39:33;;;;;;;0.70;0.70;;;;;;;;;;4978833;28;20291;-71
2023/12/24 08:42:03;;;;;;;1.87;0.80;;;;;;;;;;4978873;28;20615;-72
2023/12/24 08:44:35;;;;;;;0.77;0.77;;;;;;;;;;4981139;28;20293;-73
2023/12/24 08:47:05;;;;;;;0.90;0.90;;;;;;;;;;4979399;28;20636;-71
2023/12/24 08:49:33;;;;;;;0.80;0.80;;;;;;;;;;4982961;28;20222;-73
2023/12/24 08:52:03;;;;;;;0.80;0.80;;;;;;;;;;4978880;28;20238;-72
2023/12/24 08:54:30;;;;;;;0.80;0.80;;;;;;;;;;4985361;28;20231;-72
2023/12/24 08:56:57;;;;;;;0.80;0.80;;;;;;;;;;4974496;28;20204;-73
2023/12/24 08:59:25;;;;;;;0.80;0.80;;;;;;;;;;4978528;28;20207;-72
2023/12/24 09:01:54;;;;;;;0.90;0.90;;;;;;;;;;4983919;28;20400;-73
2023/12/24 09:04:21;;;;;;;0.70;0.70;;;;;;;;;;4975469;28;20262;-73
2023/12/24 09:06:48;;;;;;;0.70;0.70;;;;;;;;;;4986688;28;20562;-73
2023/12/24 09:09:15;;;;;;;0.70;0.70;;;;;;;;;;4992974;28;20211;-73
2023/12/24 09:11:43;;;;;;;2.30;0.90;;;;;;;;;;4980468;28;20227;-73
2023/12/24 09:14:10;;;;;;;0.73;0.73;;;;;;;;;;4978640;28;20236;-73
2023/12/24 09:16:37;;;;;;;0.70;0.70;;;;;;;;;;4965495;28;20297;-71
2023/12/24 09:19:05;;;;;;;0.83;0.83;;;;;;;;;;4987414;28;20204;-73
2023/12/24 09:21:32;;;;;;;1.10;0.93;;;;;;;;;;4991358;28;20227;-73
2023/12/24 09:24:01;;;;;;;1.20;1.20;;;;;;;;;;4982135;28;20227;-72
2023/12/24 09:26:28;;;;;;;4.90;3.90;;;;;;;;;;4987681;28;20207;-73
2023/12/24 09:28:56;;;;;;;0.70;0.70;;;;;;;;;;4975525;28;20293;-73
2023/12/24 09:31:24;;;;;;;1.10;1.00;;;;;;;;;;4963860;28;20340;-73
2023/12/24 09:33:52;;;;;;;0.63;0.63;;;;;;;;;;5014409;28;20402;-72
2023/12/24 09:36:19;;;;;;;0.90;0.90;;;;;;;;;;4996102;28;20243;-71
2023/12/24 09:38:46;;;;;;;0.70;0.70;;;;;;;;;;4993240;28;20199;-73
2023/12/24 09:41:17;;;;;;;1.00;0.80;;;;;;;;;;4985651;28;20241;-70
2023/12/24 09:43:44;;;;;;;0.80;0.80;;;;;;;;;;5004653;28;20211;-73
2023/12/24 09:46:12;;;;;;;1.10;1.10;;;;;;;;;;4998118;28;20273;-72
2023/12/24 09:48:42;;;;;;;0.87;0.87;;;;;;;;;;5003822;28;20206;-73
2023/12/24 09:51:09;;;;;;;0.90;0.90;;;;;;;;;;5005002;28;20239;-68
2023/12/24 09:53:37;;;;;;;0.90;0.90;;;;;;;;;;5003363;28;20200;-73
2023/12/24 09:56:05;;;;;;;0.90;0.90;;;;;;;;;;5006074;28;20906;-72
2023/12/24 09:58:32;;;;;;;0.80;0.80;;;;;;;;;;5008164;28;20243;-72
2023/12/24 10:01:00;;;;;;;1.90;1.80;;;;;;;;;;5000454;28;20204;-71
2023/12/24 10:03:28;;;;;;;0.70;0.70;;;;;;;;;;4997035;28;20643;-73
2023/12/24 10:06:05;;;;;;;0.83;0.83;;;;;;;;;;5000117;28;21032;-72
2023/12/24 10:08:36;;;;;;;0.87;0.87;;;;;;;;;;4998077;28;20260;-70
2023/12/24 10:11:17;;;;;;;0.90;0.90;;;;;;;;;;5002840;28;20233;-69
2023/12/24 10:13:57;;;;;;;0.83;0.83;;;;;;;;;;5009973;28;20239;-68
2023/12/24 10:16:25;;;;;;;1.53;1.43;;;;;;;;;;5015026;28;20599;-67
2023/12/24 10:18:58;;;;;;;2.70;2.27;;;;;;;;;;5009563;28;20211;-70
2023/12/24 10:21:27;;;;;;;1.00;1.00;;;;;;;;;;4988888;28;20220;-74
2023/12/24 10:24:00;;;;;;;2.23;2.03;;;;;;;;;;5000683;28;20203;-66
2023/12/24 10:26:30;;;;;;;1.10;1.10;;;;;;;;;;5009987;28;20246;-70
2023/12/24 10:28:57;;;;;;;1.03;1.03;;;;;;;;;;5010774;28;20590;-69
2023/12/24 10:31:49;;;;;;;1.40;1.30;;;;;;;;;;5010631;28;20240;-68
2023/12/24 10:34:18;;;;;;;1.10;1.00;;;;;;;;;;4996502;28;20207;-70
2023/12/24 10:36:46;;;;;;;1.00;1.00;;;;;;;;;;4999326;28;20662;-73
2023/12/24 10:39:24;;;;;;;1.03;1.03;;;;;;;;;;4971642;28;20349;-72
2023/12/24 10:41:57;;;;;;;1.03;1.03;;;;;;;;;;4986595;28;20220;-72
2023/12/24 10:44:24;;;;;;;1.00;1.00;;;;;;;;;;4993587;28;20231;-74
2023/12/24 10:46:52;;;;;;;1.07;1.07;;;;;;;;;;4971409;28;20203;-74
2023/12/24 10:49:19;;;;;;;1.73;1.00;;;;;;;;;;4981787;28;20323;-74
2023/12/24 10:51:47;;;;;;;0.90;0.90;;;;;;;;;;4987144;28;20338;-72
2023/12/24 10:54:15;;;;;;;1.00;1.00;;;;;;;;;;4988595;28;20290;-73
2023/12/24 10:57:01;;;;;;;0.90;0.90;;;;;;;;;;4979825;28;20295;-74
2023/12/24 10:59:40;;;;;;;0.87;0.87;;;;;;;;;;4981023;28;20567;-73
2023/12/24 11:02:11;;;;;;;1.87;0.90;;;;;;;;;;4985942;28;20710;-73
2023/12/24 11:04:44;;;;;;;0.93;0.93;;;;;;;;;;4984048;28;20303;-74
2023/12/24 11:07:31;;;;;;;0.90;0.90;;;;;;;;;;4982212;28;20694;-73
2023/12/24 11:09:58;;;;;;;1.10;1.10;;;;;;;;;;4968919;28;20215;-73
2023/12/24 11:12:33;;;;;;;0.80;0.80;;;;;;;;;;4994952;28;20338;-74
2023/12/24 11:15:04;;;;;;;0.70;0.70;;;;;;;;;;4990997;28;20226;-73
2023/12/24 11:17:38;;;;;;;0.83;0.83;;;;;;;;;;4990724;28;20747;-72
2023/12/24 11:20:19;;;;;;;0.90;0.90;;;;;;;;;;4987649;28;20231;-74
2023/12/24 11:23:05;;;;;;;0.70;0.70;;;;;;;;;;4990113;28;20226;-75
2023/12/24 11:25:36;;;;;;;0.80;0.80;;;;;;;;;;4988672;28;20670;-75
2023/12/24 11:28:04;;;;;;;0.87;0.87;;;;;;;;;;4981105;28;20238;-72
2023/12/24 11:30:51;;;;;;;0.60;0.60;;;;;;;;;;4983963;28;20673;-74
2023/12/24 11:33:29;;;;;;;0.80;0.80;;;;;;;;;;4988406;28;20239;-73
2023/12/24 11:36:01;;;;;;;0.77;0.77;;;;;;;;;;4987434;28;20231;-68
2023/12/24 11:38:39;;;;;;;0.90;0.90;;;;;;;;;;4976691;28;20207;-67
2023/12/24 11:41:14;;;;;;;0.80;0.80;;;;;;;;;;4998484;28;20219;-72
2023/12/24 11:43:51;;;;;;;0.80;0.80;;;;;;;;;;5012787;28;20625;-72
2023/12/24 11:46:19;;;;;;;0.70;0.70;;;;;;;;;;4995672;28;20207;-72
2023/12/24 11:48:46;;;;;;;0.90;0.90;;;;;;;;;;4976970;28;21851;-71
2023/12/24 11:51:14;;;;;;;0.70;0.70;;;;;;;;;;4980162;28;20223;-73
2023/12/24 11:53:42;;;;;;;0.60;0.60;;;;;;;;;;4987526;28;20212;-73
2023/12/24 11:56:20;;;;;;;0.80;0.80;;;;;;;;;;4978211;28;20222;-72
2023/12/24 11:58:58;;;;;;;0.90;0.90;;;;;;;;;;4992215;28;20199;-72
2023/12/24 12:01:34;;;;;;;0.80;0.80;;;;;;;;;;4982922;28;20262;-71
2023/12/24 12:04:02;;;;;;;0.70;0.70;;;;;;;;;;4954822;28;20207;-72
2023/12/24 12:06:31;;;;;;;0.80;0.80;;;;;;;;;;4980176;28;20258;-71
2023/12/24 12:09:05;;;;;;;0.90;0.90;;;;;;;;;;4978924;28;21542;-73
2023/12/24 12:11:33;;;;;;;0.80;0.80;;;;;;;;;;4976139;28;20236;-71
2023/12/24 12:14:01;;;;;;;0.80;0.80;;;;;;;;;;4972309;28;21442;-73
2023/12/24 12:16:29;;;;;;;0.80;0.80;;;;;;;;;;4983138;28;20826;-71
2023/12/24 12:18:57;;;;;;;0.70;0.70;;;;;;;;;;4980312;28;20290;-71
2023/12/24 12:21:24;;;;;;;0.67;0.67;;;;;;;;;;4980735;28;20323;-72
2023/12/24 12:23:52;;;;;;;0.70;0.70;;;;;;;;;;4977148;28;20659;-72
2023/12/24 12:26:19;;;;;;;0.70;0.70;;;;;;;;;;4985654;28;20218;-72
2023/12/24 12:28:46;;;;;;;0.83;0.83;;;;;;;;;;4978914;28;20268;-71
2023/12/24 12:31:14;;;;;;;0.60;0.60;;;;;;;;;;4975538;28;20238;-71
2023/12/24 12:33:41;;;;;;;0.80;0.80;;;;;;;;;;4984010;28;21353;-72
2023/12/24 12:36:10;;;;;;;0.80;0.80;;;;;;;;;;4987301;28;20742;-72
2023/12/24 12:38:37;;;;;;;1.07;1.07;;;;;;;;;;4980815;28;20212;-71
2023/12/24 12:41:06;;;;;;;0.90;0.90;;;;;;;;;;4986134;28;20203;-71
2023/12/24 12:43:34;;;;;;;0.90;0.90;;;;;;;;;;4978073;28;20214;-73
2023/12/24 12:46:02;;;;;;;0.80;0.80;;;;;;;;;;4980910;28;20209;-73
2023/12/24 12:48:29;;;;;;;0.70;0.70;;;;;;;;;;4988106;28;20303;-72
2023/12/24 12:50:57;;;;;;;0.93;0.90;;;;;;;;;;4978897;28;21135;-72
2023/12/24 12:53:25;;;;;;;0.80;0.80;;;;;;;;;;4994799;28;20218;-71
2023/12/24 12:56:01;;;;;;;0.70;0.70;;;;;;;;;;4993835;28;20315;-72
2023/12/24 12:58:28;;;;;;;1.03;1.03;;;;;;;;;;4989680;28;20207;-73
2023/12/24 13:00:59;;;;;;;1.20;1.20;;;;;;;;;;4997849;28;20600;-72
2023/12/24 13:03:27;;;;;;;2.33;2.23;;;;;;;;;;4997846;28;20210;-71
2023/12/24 13:05:57;;;;;;;1.03;1.03;;;;;;;;;;4999444;28;20219;-71
2023/12/24 13:08:25;;;;;;;1.10;1.10;;;;;;;;;;4996282;28;20211;-71
2023/12/24 13:10:52;;;;;;;2.80;2.70;;;;;;;;;;4972288;28;20262;-71
2023/12/24 13:13:21;;;;;;;2.53;2.20;;;;;;;;;;4990873;28;20207;-73
2023/12/24 13:15:49;;;;;;;1.77;1.77;;;;;;;;;;4994790;28;20227;-72
2023/12/24 13:18:20;;;;;;;0.90;0.90;;;;;;;;;;4993022;28;20212;-70
2023/12/24 13:20:50;;;;;;;0.80;0.80;;;;;;;;;;4998173;28;20276;-70
2023/12/24 13:23:22;;;;;;;0.90;0.90;;;;;;;;;;4991882;28;20204;-72
2023/12/24 13:25:50;;;;;;;0.80;0.80;;;;;;;;;;4996570;28;20302;-72
2023/12/24 13:28:22;;;;;;;0.87;0.87;;;;;;;;;;4991287;28;20219;-71
2023/12/24 13:30:56;;;;;;;0.90;0.90;;;;;;;;;;4994120;28;20604;-73
2023/12/24 13:33:24;;;;;;;0.80;0.80;;;;;;;;;;5006386;28;20285;-70
2023/12/24 13:35:52;;;;;;;1.00;1.00;;;;;;;;;;4997179;28;20232;-71
2023/12/24 13:38:20;;;;;;;1.10;1.00;;;;;;;;;;5011206;28;20654;-72
2023/12/24 13:40:48;;;;;;;1.60;1.23;;;;;;;;;;5019981;28;20234;-70
2023/12/24 13:43:15;;;;;;;0.80;0.80;;;;;;;;;;4992913;28;20231;-70
2023/12/24 13:45:43;;;;;;;0.83;0.83;;;;;;;;;;5010537;28;20215;-75
2023/12/24 13:48:11;;;;;;;1.37;1.27;;;;;;;;;;4984206;28;20211;-75
2023/12/24 13:50:43;;;;;;;1.30;1.30;;;;;;;;;;4979315;28;20227;-71
2023/12/24 13:53:11;;;;;;;0.87;0.87;;;;;;;;;;4982324;28;21719;-72
2023/12/24 13:55:58;;;;;;;0.90;0.90;;;;;;;;;;4977784;28;20338;-74
2023/12/24 13:58:26;;;;;;;0.97;0.90;;;;;;;;;;4977892;28;20208;-71
2023/12/24 14:00:54;;;;;;;0.80;0.80;;;;;;;;;;4981914;28;22659;-71
2023/12/24 14:03:23;;;;;;;0.80;0.80;;;;;;;;;;4988270;28;20238;-71
2023/12/24 14:05:51;;;;;;;0.87;0.80;;;;;;;;;;4997163;28;20698;-73
2023/12/24 14:08:22;;;;;;;0.80;0.80;;;;;;;;;;4981991;28;20210;-71
2023/12/24 14:10:50;;;;;;;1.07;0.80;;;;;;;;;;4982800;28;20282;-76
2023/12/24 14:13:17;;;;;;;1.40;0.87;;;;;;;;;;4988739;28;20722;-71
2023/12/24 14:15:45;;;;;;;1.83;0.80;;;;;;;;;;4985379;28;20389;-72
2023/12/24 14:18:12;;;;;;;0.70;0.70;;;;;;;;;;4991147;28;20586;-73
2023/12/24 14:20:40;;;;;;;1.03;0.70;;;;;;;;;;4985349;28;20228;-72
2023/12/24 14:23:08;;;;;;;0.90;0.90;;;;;;;;;;4993889;28;20556;-73
2023/12/24 14:25:36;;;;;;;0.70;0.70;;;;;;;;;;4995764;28;20207;-73
2023/12/24 14:28:03;;;;;;;0.70;0.70;;;;;;;;;;4998717;28;20219;-74
2023/12/24 14:30:31;;;;;;;0.80;0.80;;;;;;;;;;4979282;28;20214;-73
2023/12/24 14:32:59;;;;;;;1.13;0.90;;;;;;;;;;4994251;28;20227;-73
2023/12/24 14:35:28;;;;;;;0.80;0.80;;;;;;;;;;4999447;28;20222;-71
2023/12/24 14:37:56;;;;;;;0.90;0.90;;;;;;;;;;5007207;28;20278;-74
2023/12/24 14:40:23;;;;;;;0.70;0.70;;;;;;;;;;4999472;28;20207;-74
2023/12/24 14:42:51;;;;;;;0.97;0.97;;;;;;;;;;4992097;28;20223;-73
2023/12/24 14:45:19;;;;;;;0.70;0.70;;;;;;;;;;4999755;28;20199;-70
2023/12/24 14:47:47;;;;;;;1.80;0.90;;;;;;;;;;4993932;28;20319;-76
2023/12/24 14:50:15;;;;;;;0.80;0.80;;;;;;;;;;4995396;28;20638;-73
2023/12/24 14:52:42;;;;;;;0.80;0.80;;;;;;;;;;4994626;28;20224;-72